Time;durP1;ratioP1;P1;durP2;ratioP2;P2;SDS_P1;SDS_P2;PMS_P1;PMS_P2;Temp;Humidity;BMP_temperature;BMP_pressure;BME280_temperature;BME280_humidity;BME280_pressure;Samples;Min_cycle;Max_cycle;Signal;HPM_P1;HPM_P2
2022/12/12 00:02:16;;;;;;;31.27;12.35;;;;;;;-144.47;93.73;63343.28;4991743;28;20040;-69
2022/12/12 00:04:41;;;;;;;28.40;10.88;;;;;;;-144.47;93.40;63359.22;4992241;28;20058;-69
2022/12/12 00:07:07;;;;;;;32.75;12.43;;;;;;;-144.47;93.12;63311.41;4990335;28;20053;-67
2022/12/12 00:09:32;;;;;;;30.15;12.15;;;;;;;-144.47;93.49;63329.34;4981015;28;20439;-69
2022/12/12 00:11:58;;;;;;;32.38;13.50;;;;;;;-144.47;93.36;63355.22;4990989;28;20061;-68
2022/12/12 00:14:23;;;;;;;31.08;12.73;;;;;;;-144.47;93.56;63409.03;4981013;28;20077;-68
2022/12/12 00:16:48;;;;;;;32.00;12.48;;;;;;;-144.47;93.46;63383.13;4991213;28;20034;-66
2022/12/12 00:19:14;;;;;;;28.25;12.18;;;;;;;-144.47;93.64;63428.94;4991418;28;20034;-68
2022/12/12 00:21:39;;;;;;;32.60;11.68;;;;;;;-144.47;93.84;63432.94;4991331;28;20038;-67
2022/12/12 00:24:05;;;;;;;29.23;11.15;;;;;;;-144.47;93.63;63407.03;4991622;28;20049;-69
2022/12/12 00:26:33;;;;;;;29.17;11.32;;;;;;;-144.47;93.96;63490.72;4988848;28;20027;-69
2022/12/12 00:29:00;;;;;;;30.23;11.32;;;;;;;-144.47;93.89;63496.69;4990442;28;20034;-67
2022/12/12 00:31:26;;;;;;;34.33;10.90;;;;;;;-144.47;93.57;63478.75;4991329;28;20030;-66
2022/12/12 00:33:52;;;;;;;28.33;11.82;;;;;;;-144.47;93.36;63502.66;4990000;28;20687;-67
2022/12/12 00:36:20;;;;;;;32.95;12.07;;;;;;;-144.47;93.29;63498.69;4991067;28;20022;-67
2022/12/12 00:38:46;;;;;;;27.50;11.18;;;;;;;-144.47;93.06;63490.72;4992731;28;20480;-66
2022/12/12 00:41:12;;;;;;;32.67;12.00;;;;;;;-144.47;93.47;63532.56;4983005;28;20027;-67
2022/12/12 00:43:37;;;;;;;34.58;12.30;;;;;;;-144.47;92.83;63490.72;4991004;28;20024;-68
2022/12/12 00:46:03;;;;;;;33.70;13.25;;;;;;;-144.47;93.18;63520.59;4991581;28;20092;-68
2022/12/12 00:48:29;;;;;;;32.03;13.77;;;;;;;-144.47;93.08;63510.63;4991266;28;20030;-69
2022/12/12 00:50:55;;;;;;;28.02;11.60;;;;;;;-144.47;92.74;63546.50;4991637;28;20019;-68
2022/12/12 00:53:21;;;;;;;34.03;12.52;;;;;;;-144.47;92.77;63524.59;4991980;28;20026;-68
2022/12/12 00:55:54;;;;;;;34.83;12.82;;;;;;;-144.47;92.95;63532.56;4990433;28;20029;-69
2022/12/12 00:58:20;;;;;;;32.15;12.57;;;;;;;-144.47;93.30;63548.50;4986858;28;20037;-70
2022/12/12 01:00:45;;;;;;;39.00;13.00;;;;;;;-144.47;92.96;63542.50;4991378;28;20054;-69
2022/12/12 01:03:10;;;;;;;35.05;12.18;;;;;;;-144.47;92.81;63568.41;4991549;28;20022;-69
2022/12/12 01:05:36;;;;;;;27.70;12.00;;;;;;;-144.47;92.76;63542.50;4991535;28;20058;-65
2022/12/12 01:08:01;;;;;;;31.13;12.23;;;;;;;-144.47;92.56;63536.53;4989647;28;20026;-68
2022/12/12 01:10:27;;;;;;;35.83;13.70;;;;;;;-144.47;92.66;63536.53;4993539;28;20042;-69
2022/12/12 01:12:52;;;;;;;28.10;12.65;;;;;;;-144.47;92.93;63562.44;4990204;28;20480;-68
2022/12/12 01:15:17;;;;;;;32.65;12.10;;;;;;;-144.47;92.54;63530.56;4989268;28;20053;-68
2022/12/12 01:17:43;;;;;;;32.85;13.32;;;;;;;-144.47;92.31;63546.50;4990170;28;20076;-69
2022/12/12 01:20:21;;;;;;;26.88;11.65;;;;;;;-144.47;92.14;63566.44;4989087;28;20029;-68
2022/12/12 01:22:47;;;;;;;32.47;12.13;;;;;;;-144.47;92.00;63564.44;4987241;28;20042;-66
2022/12/12 01:25:14;;;;;;;33.95;13.13;;;;;;;-144.47;92.14;63580.38;4990948;28;20263;-68
2022/12/12 01:27:40;;;;;;;28.35;11.18;;;;;;;-144.47;92.12;63560.44;4987253;28;20025;-68
2022/12/12 01:30:07;;;;;;;26.98;10.50;;;;;;;-144.47;92.04;63562.44;4991184;28;20035;-69
2022/12/12 01:32:32;;;;;;;32.25;12.88;;;;;;;-144.47;91.53;63526.56;4992622;28;20041;-69
2022/12/12 01:34:58;;;;;;;29.35;11.80;;;;;;;-144.47;91.30;63540.53;4991133;28;20026;-68
2022/12/12 01:37:23;;;;;;;25.63;12.25;;;;;;;-144.47;91.42;63506.66;4986684;28;20532;-68
2022/12/12 01:39:49;;;;;;;29.63;10.57;;;;;;;-144.47;91.29;63568.41;4987767;28;20037;-65
2022/12/12 01:42:16;;;;;;;25.92;11.23;;;;;;;-144.47;90.53;63502.66;4989725;28;20361;-68
2022/12/12 01:44:45;;;;;;;33.83;11.85;;;;;;;-144.47;90.55;63484.72;4992546;28;20492;-70
2022/12/12 01:47:17;;;;;;;26.35;11.00;;;;;;;-144.47;90.37;63502.66;4984814;28;20026;-69
2022/12/12 01:49:48;;;;;;;23.65;10.52;;;;;;;-144.47;90.20;63454.84;4993146;28;20034;-68
2022/12/12 01:52:18;;;;;;;24.30;11.15;;;;;;;-144.47;90.40;63486.72;4987423;28;20381;-69
2022/12/12 01:54:48;;;;;;;27.55;11.27;;;;;;;-144.47;90.44;63470.78;4981497;28;20037;-68
2022/12/12 01:57:16;;;;;;;;;;;;;;;-144.47;90.75;63510.63;4992666;28;20482;-69
2022/12/12 01:59:44;;;;;;;24.67;11.25;;;;;;;-144.47;90.63;63486.72;4992957;28;19942;-66
2022/12/12 02:02:11;;;;;;;23.63;10.82;;;;;;;-144.47;89.81;63492.69;4987901;28;20101;-67
2022/12/12 02:04:37;;;;;;;26.83;11.32;;;;;;;-144.47;90.20;63498.69;4993034;28;20023;-68
2022/12/12 02:07:03;;;;;;;23.95;10.48;;;;;;;-144.47;89.89;63498.69;4991230;28;20092;-64
2022/12/12 02:09:28;;;;;;;25.73;10.18;;;;;;;-144.47;89.83;63458.84;4991629;28;20069;-68
2022/12/12 02:11:56;;;;;;;32.30;11.55;;;;;;;-144.47;89.48;63454.84;4987592;28;20031;-68
2022/12/12 02:14:25;;;;;;;25.90;11.75;;;;;;;-144.47;89.53;63454.84;4985459;28;20073;-68
2022/12/12 02:17:10;;;;;;;25.58;10.48;;;;;;;-144.47;89.44;63478.75;4992518;28;20030;-64
2022/12/12 02:20:06;;;;;;;26.40;11.35;;;;;;;-144.47;89.40;63484.72;4993091;28;20026;-66
2022/12/12 02:22:49;;;;;;;23.67;10.20;;;;;;;-144.47;89.39;63508.66;4992575;28;20034;-68
2022/12/12 02:25:45;;;;;;;35.72;12.05;;;;;;;-144.47;89.83;63536.53;4992804;28;20034;-67
2022/12/12 02:28:42;;;;;;;27.77;11.95;;;;;;;-144.47;90.40;63590.34;4990680;28;20468;-68
2022/12/12 02:31:36;;;;;;;27.83;10.55;;;;;;;-144.47;90.50;63598.31;4993620;28;20083;-64
2022/12/12 02:34:32;;;;;;;29.45;12.02;;;;;;;-144.47;90.09;63606.28;4994086;28;20419;-66
2022/12/12 02:37:19;;;;;;;29.48;11.02;;;;;;;-144.47;90.32;63616.22;4988287;28;20061;-68
2022/12/12 02:39:53;;;;;;;31.70;11.70;;;;;;;-144.47;90.21;63576.38;4992603;28;20361;-67
2022/12/12 02:43:17;;;;;;;24.38;11.02;;;;;;;-144.47;89.73;63622.22;4986774;28;20037;-67
2022/12/12 02:46:10;;;;;;;28.33;11.05;;;;;;;-144.47;90.15;63658.06;4952476;29;20034;-67
2022/12/12 02:48:35;;;;;;;23.83;11.07;;;;;;;-144.47;89.41;63646.13;4951921;29;20095;-68
2022/12/12 02:51:03;;;;;;;21.25;8.48;;;;;;;-144.47;89.30;63604.28;4952314;29;20039;-67
2022/12/12 02:53:29;;;;;;;28.33;11.02;;;;;;;-144.47;89.55;63606.28;4952008;29;20045;-70
2022/12/12 02:56:39;;;;;;;36.70;11.00;;;;;;;-144.47;89.95;63626.19;4951537;29;20031;-66
2022/12/12 02:59:04;;;;;;;26.88;10.55;;;;;;;-144.47;90.47;63656.09;4924721;29;20590;-66
2022/12/12 03:01:56;;;;;;;25.98;11.43;;;;;;;-144.47;90.55;63674.00;4951813;29;20035;-64
2022/12/12 03:07:46;;;;;;;30.48;10.95;;;;;;;-144.47;91.28;63715.84;4951566;29;20101;-68
2022/12/12 03:10:17;;;;;;;24.80;9.68;;;;;;;-144.47;91.25;63755.72;4951867;29;20046;-66
2022/12/12 03:12:59;;;;;;;33.78;12.10;;;;;;;-144.47;91.00;63771.66;4950708;29;20445;-69
2022/12/12 03:15:55;;;;;;;26.13;10.15;;;;;;;-144.47;91.41;63781.63;4952378;28;20500;-68
2022/12/12 03:18:35;;;;;;;27.25;9.55;;;;;;;-144.47;91.08;63823.47;4986579;28;20041;-68
2022/12/12 03:21:20;;;;;;;28.35;11.30;;;;;;;-144.47;91.43;63827.44;4992914;28;20031;-67
2022/12/12 03:23:52;;;;;;;30.38;10.38;;;;;;;-144.47;91.46;63817.47;4991966;28;20030;-68
2022/12/12 03:26:28;;;;;;;24.48;9.88;;;;;;;-144.47;91.85;63815.50;4991835;28;20037;-67
2022/12/12 03:29:04;;;;;;;20.60;9.10;;;;;;;-144.47;91.71;63839.41;4989942;28;20033;-65
2022/12/12 03:31:34;;;;;;;26.00;11.80;;;;;;;-144.47;91.94;63815.50;4993121;28;20122;-67
2022/12/12 03:34:05;;;;;;;27.67;10.20;;;;;;;-144.47;91.81;63845.38;4992469;28;20026;-68
2022/12/12 03:36:46;;;;;;;34.33;12.30;;;;;;;-144.47;92.11;63883.22;4990635;28;20057;-71
2022/12/12 03:39:18;;;;;;;23.77;10.68;;;;;;;-144.47;92.49;63905.16;4991013;28;20090;-70
2022/12/12 03:41:50;;;;;;;27.35;11.25;;;;;;;-144.47;92.56;63939.03;4995439;28;20026;-68
2022/12/12 03:44:41;;;;;;;30.38;11.30;;;;;;;-144.47;92.70;64000.81;4985854;28;20113;-67
2022/12/12 03:47:17;;;;;;;23.88;9.40;;;;;;;-144.47;92.70;64008.78;4991946;28;20141;-68
2022/12/12 03:49:59;;;;;;;25.33;10.85;;;;;;;-144.47;92.61;64004.78;4992420;28;20034;-65
2022/12/12 03:52:34;;;;;;;31.35;12.00;;;;;;;-144.47;92.90;64062.56;4992385;28;20030;-66
2022/12/12 03:55:15;;;;;;;27.35;10.63;;;;;;;-144.47;92.84;64088.47;4992722;28;20045;-70
2022/12/12 03:57:57;;;;;;;31.48;10.73;;;;;;;-144.47;92.07;64038.66;4991452;28;20026;-65
2022/12/12 04:00:23;;;;;;;29.30;11.00;;;;;;;-144.47;92.59;64070.53;4986270;28;20037;-65
2022/12/12 04:03:00;;;;;;;28.45;11.32;;;;;;;-144.47;92.04;64028.69;4994494;28;20030;-69
2022/12/12 04:12:57;;;;;;;30.17;10.63;;;;;;;-144.47;91.38;64068.56;4992376;28;20084;-68
2022/12/12 04:14:32;;;;;;;33.97;11.02;;;;;;;-144.47;91.74;64084.50;4983643;28;20038;-69
2022/12/12 04:17:02;;;;;;;30.80;10.43;;;;;;;-144.47;91.60;64116.38;4989693;28;20030;-66
2022/12/12 04:28:52;;;;;;;25.90;9.52;;;;;;;-144.47;92.35;64152.25;4989875;28;20045;-68
2022/12/12 04:31:22;;;;;;;23.80;10.65;;;;;;;-144.47;92.21;64152.25;4985736;28;20116;-69
2022/12/12 04:33:50;;;;;;;26.38;11.90;;;;;;;-144.47;92.21;64142.28;4991654;28;20541;-68
2022/12/12 04:36:19;;;;;;;21.48;10.40;;;;;;;-144.47;92.19;64120.38;4992547;28;20030;-64
2022/12/12 04:38:48;;;;;;;32.92;10.90;;;;;;;-144.47;91.94;64116.38;4991336;28;20031;-68
2022/12/12 04:41:16;;;;;;;23.90;9.38;;;;;;;-144.47;91.89;64128.34;4989948;28;20540;-70
2022/12/12 04:43:46;;;;;;;21.30;8.07;;;;;;;-144.47;91.83;64098.44;4992945;28;20030;-68
2022/12/12 04:46:17;;;;;;;24.20;8.70;;;;;;;-144.47;91.74;64100.44;4993210;28;20500;-72
2022/12/12 04:48:48;;;;;;;24.00;10.05;;;;;;;-144.47;92.36;64128.34;4993931;28;20380;-70
2022/12/12 04:51:17;;;;;;;27.48;9.68;;;;;;;-144.47;91.84;64096.44;4994135;28;20060;-69
2022/12/12 04:53:59;;;;;;;25.65;11.52;;;;;;;-144.47;91.17;64088.47;4993237;28;20038;-69
2022/12/12 04:56:28;;;;;;;22.10;9.25;;;;;;;-144.47;90.94;64094.47;4981171;28;20035;-67
2022/12/12 04:58:54;;;;;;;23.90;10.65;;;;;;;-144.47;91.22;64072.53;4992035;28;20563;-68
2022/12/12 05:01:34;;;;;;;18.65;8.73;;;;;;;-144.47;91.49;64052.59;4995396;28;20018;-67
2022/12/12 05:04:04;;;;;;;27.70;10.95;;;;;;;-144.47;91.08;64030.69;4998737;28;20469;-68
2022/12/12 05:06:36;;;;;;;20.85;9.25;;;;;;;-144.47;91.52;64074.53;4994011;28;20542;-70
2022/12/12 05:09:02;;;;;;;19.55;9.05;;;;;;;-144.47;91.87;64094.47;4990958;28;20563;-70
2022/12/12 05:11:28;;;;;;;22.23;10.48;;;;;;;-144.47;91.48;64098.44;4992147;28;20034;-68
2022/12/12 05:13:53;;;;;;;19.55;9.55;;;;;;;-144.47;91.50;64100.44;4997523;28;20061;-69
2022/12/12 05:16:25;;;;;;;22.83;9.18;;;;;;;-144.47;91.94;64092.47;4985582;28;20030;-68
2022/12/12 05:18:50;;;;;;;17.25;9.07;;;;;;;-144.47;91.96;64132.31;4991538;28;20089;-69
2022/12/12 05:21:16;;;;;;;21.20;9.63;;;;;;;-144.47;91.90;64094.47;4993148;28;20022;-68
2022/12/12 05:23:42;;;;;;;23.42;9.02;;;;;;;-144.47;92.03;64102.44;4993470;28;20032;-66
2022/12/12 05:26:09;;;;;;;20.83;9.25;;;;;;;-144.47;92.14;64144.28;5000585;28;20364;-68
2022/12/12 05:28:35;;;;;;;20.00;8.75;;;;;;;-144.47;92.24;64136.31;4995687;28;20032;-68
2022/12/12 05:31:00;;;;;;;20.67;9.95;;;;;;;-144.47;93.18;64204.06;4991922;28;20022;-70
2022/12/12 05:33:25;;;;;;;20.60;8.55;;;;;;;-144.47;93.22;64196.09;4992853;28;20037;-68
2022/12/12 05:35:51;;;;;;;18.23;8.45;;;;;;;-144.47;93.25;64222.00;4997094;28;20014;-67
2022/12/12 05:38:16;;;;;;;22.40;9.38;;;;;;;-144.47;92.88;64229.97;4995756;28;20030;-68
2022/12/12 05:40:41;;;;;;;17.90;8.50;;;;;;;-144.47;92.91;64249.91;4992579;28;20105;-67
2022/12/12 05:43:07;;;;;;;24.48;8.57;;;;;;;-144.47;92.99;64257.88;4992322;28;20026;-66
2022/12/12 05:45:32;;;;;;;24.52;9.13;;;;;;;-144.47;93.17;64287.75;4992154;28;20042;-70
2022/12/12 05:47:58;;;;;;;21.50;9.93;;;;;;;-144.47;92.99;64277.78;4990809;28;20026;-66
2022/12/12 05:50:23;;;;;;;18.88;8.45;;;;;;;-144.47;93.36;64307.69;4991334;28;20176;-66
2022/12/12 05:52:48;;;;;;;15.02;7.63;;;;;;;-144.47;93.16;64319.66;4991959;28;20056;-68
2022/12/12 05:55:14;;;;;;;19.15;8.00;;;;;;;-144.47;93.66;64335.59;4992427;28;20034;-66
2022/12/12 05:57:39;;;;;;;21.73;9.30;;;;;;;-144.47;93.54;64383.41;4990972;28;20061;-67
2022/12/12 06:00:05;;;;;;;20.23;8.07;;;;;;;-144.47;94.11;64419.28;4992849;28;20031;-64
2022/12/12 06:02:31;;;;;;;19.35;8.90;;;;;;;-144.47;93.72;64425.28;4990967;28;20026;-68
2022/12/12 06:04:56;;;;;;;21.13;9.15;;;;;;;-144.47;93.96;64439.22;4991523;28;20034;-66
2022/12/12 06:07:21;;;;;;;19.10;8.05;;;;;;;-144.47;93.76;64427.25;5000794;28;20034;-68
2022/12/12 06:09:47;;;;;;;18.60;8.68;;;;;;;-144.47;93.54;64415.31;4995875;28;20400;-66
2022/12/12 06:12:12;;;;;;;23.90;10.25;;;;;;;-144.47;93.66;64427.25;4994322;28;20030;-63
2022/12/12 06:14:38;;;;;;;27.27;9.27;;;;;;;-144.47;93.66;64467.13;4994511;28;20036;-67
2022/12/12 06:17:03;;;;;;;23.67;10.55;;;;;;;-144.47;93.71;64487.06;4981258;28;20193;-68
2022/12/12 06:19:29;;;;;;;21.52;10.07;;;;;;;-144.47;93.78;64479.06;4994556;28;20110;-65
2022/12/12 06:21:54;;;;;;;23.45;9.98;;;;;;;-144.47;94.51;64540.84;4993895;28;20026;-64
2022/12/12 06:24:19;;;;;;;25.08;9.70;;;;;;;-144.47;94.25;64542.84;4994845;28;20045;-67
2022/12/12 06:26:45;;;;;;;25.77;10.45;;;;;;;-144.47;94.86;64622.56;4992074;28;20036;-64
2022/12/12 06:29:10;;;;;;;22.65;9.27;;;;;;;-144.47;95.33;64658.44;4995254;28;20077;-67
2022/12/12 06:31:35;;;;;;;23.35;9.85;;;;;;;-144.47;95.20;64642.50;4994876;28;20100;-69
2022/12/12 06:34:01;;;;;;;20.10;9.35;;;;;;;-144.47;95.30;64682.38;4994270;28;20072;-65
2022/12/12 06:36:26;;;;;;;26.30;11.35;;;;;;;-144.47;95.70;64670.41;4992556;28;20087;-67
2022/12/12 06:38:57;;;;;;;22.73;9.65;;;;;;;-144.47;95.80;64730.19;4995078;28;20018;-66
2022/12/12 06:41:25;;;;;;;19.35;9.75;;;;;;;-144.47;95.96;64752.13;4994181;28;20031;-68
2022/12/12 06:43:51;;;;;;;24.48;10.68;;;;;;;-144.47;96.10;64762.09;4993634;28;20097;-68
2022/12/12 06:46:22;;;;;;;28.05;10.95;;;;;;;-144.47;96.76;64786.00;4992076;28;20604;-67
2022/12/12 06:48:49;;;;;;;25.52;10.30;;;;;;;-144.47;96.29;64698.31;4993524;28;20396;-68
2022/12/12 06:51:18;;;;;;;22.80;9.45;;;;;;;-144.47;96.56;64676.38;4993587;28;20048;-68
2022/12/12 06:53:43;;;;;;;22.88;10.77;;;;;;;-144.47;96.34;64610.63;4993760;28;20726;-66
2022/12/12 06:56:13;;;;;;;21.33;10.38;;;;;;;-144.47;96.15;64558.78;4993804;28;20026;-67
2022/12/12 06:58:39;;;;;;;23.02;9.90;;;;;;;-144.47;96.48;64503.00;4993567;28;20132;-68
2022/12/12 07:01:05;;;;;;;22.98;10.07;;;;;;;-144.47;96.15;64383.41;4993975;28;20097;-65
2022/12/12 07:03:31;;;;;;;26.67;10.80;;;;;;;-144.47;96.35;64339.56;4987359;28;20036;-67
2022/12/12 07:05:56;;;;;;;24.02;10.68;;;;;;;-144.47;96.50;64271.81;4993376;28;20034;-68
2022/12/12 07:08:22;;;;;;;22.33;9.02;;;;;;;-144.47;96.83;64263.84;4993645;28;20432;-68
2022/12/12 07:10:47;;;;;;;26.25;10.63;;;;;;;-144.47;96.73;64210.03;4992429;28;20109;-67
2022/12/12 07:13:13;;;;;;;24.88;10.10;;;;;;;-144.47;96.74;64084.50;4991134;28;20085;-67
2022/12/12 07:15:46;;;;;;;25.05;11.30;;;;;;;-144.47;97.01;63970.91;4993106;28;20118;-66
2022/12/12 07:18:13;;;;;;;26.90;11.05;;;;;;;-144.47;97.21;63873.28;4993583;28;20062;-67
2022/12/12 07:20:39;;;;;;;27.00;9.77;;;;;;;-144.47;97.48;63741.75;4993113;28;20127;-66
2022/12/12 07:23:05;;;;;;;26.80;10.60;;;;;;;-144.47;97.51;63538.53;4993724;28;20034;-66
2022/12/12 07:25:30;;;;;;;28.13;10.10;;;;;;;-144.47;97.76;63442.91;4993136;28;20034;-66
2022/12/12 07:27:56;;;;;;;27.75;11.00;;;;;;;-144.47;97.98;63257.59;4992692;28;20084;-66
2022/12/12 07:30:21;;;;;;;30.02;10.75;;;;;;;-144.47;98.11;63002.63;4993154;28;20451;-67
2022/12/12 07:32:46;;;;;;;22.33;10.10;;;;;;;-144.47;98.35;62893.06;4992878;28;20073;-65
2022/12/12 07:35:12;;;;;;;26.08;11.27;;;;;;;-144.47;98.28;62691.88;4994076;28;20561;-67
2022/12/12 07:37:37;;;;;;;25.88;10.98;;;;;;;-144.47;98.89;62476.75;4993478;28;20472;-67
2022/12/12 07:40:03;;;;;;;29.60;10.80;;;;;;;-144.47;98.87;62056.50;4993870;28;20038;-67
2022/12/12 07:42:28;;;;;;;30.42;11.10;;;;;;;-144.47;99.15;61710.00;4994265;28;20030;-66
2022/12/12 07:44:54;;;;;;;24.35;9.93;;;;;;;-144.47;99.03;61447.13;4993018;28;20026;-67
2022/12/12 07:47:19;;;;;;;34.58;12.98;;;;;;;-144.47;99.01;61295.81;4991751;28;20045;-66
2022/12/12 07:49:45;;;;;;;34.55;13.48;;;;;;;-144.47;99.00;61086.75;4993514;28;20161;-66
2022/12/12 07:52:10;;;;;;;34.53;12.43;;;;;;;-144.47;98.98;60985.22;4993079;28;20480;-67
2022/12/12 07:54:35;;;;;;;29.83;11.88;;;;;;;-144.47;98.95;60819.97;4993161;28;20038;-66
2022/12/12 07:57:01;;;;;;;27.98;12.10;;;;;;;-144.47;98.95;60816.00;4992303;28;20037;-67
2022/12/12 07:59:26;;;;;;;29.92;11.77;;;;;;;-144.47;98.97;60746.31;4991820;28;20038;-67
2022/12/12 08:01:51;;;;;;;28.33;11.75;;;;;;;-144.47;98.85;60696.53;4992781;28;20642;-67
2022/12/12 08:04:17;;;;;;;30.25;11.50;;;;;;;-144.47;98.67;60626.88;4980659;28;20026;-69
2022/12/12 08:06:42;;;;;;;26.80;13.32;;;;;;;-144.47;98.45;60555.22;4991536;28;20030;-66
2022/12/12 08:09:08;;;;;;;32.33;13.10;;;;;;;-144.47;98.62;60511.41;4995020;28;20037;-66
2022/12/12 08:11:33;;;;;;;29.73;13.60;;;;;;;-144.47;98.51;60413.88;4989787;28;20146;-65
2022/12/12 08:13:59;;;;;;;31.65;12.60;;;;;;;-144.47;98.39;60298.41;4992960;28;20169;-67
2022/12/12 08:16:27;;;;;;;29.00;11.25;;;;;;;-144.47;98.25;60268.56;4991778;28;20109;-65
2022/12/12 08:18:53;;;;;;;32.88;12.65;;;;;;;-144.47;98.00;60272.53;4992377;28;20427;-64
2022/12/12 08:21:19;;;;;;;35.00;11.68;;;;;;;-144.47;97.46;60282.50;4992002;28;20026;-67
2022/12/12 08:23:44;;;;;;;33.00;11.18;;;;;;;-144.47;97.14;60260.59;4992137;28;20038;-66
2022/12/12 08:26:12;;;;;;;27.95;10.75;;;;;;;-144.47;97.03;60238.72;4991754;28;20516;-66
2022/12/12 08:28:40;;;;;;;31.17;13.55;;;;;;;-144.47;97.28;60200.88;4991691;28;20050;-66
2022/12/12 08:31:06;;;;;;;39.63;12.32;;;;;;;-144.47;97.36;60200.88;4991370;28;20203;-66
2022/12/12 08:33:32;;;;;;;29.92;11.85;;;;;;;-144.47;97.06;60153.13;4992470;28;20459;-66
2022/12/12 08:35:57;;;;;;;27.55;12.13;;;;;;;-144.47;96.79;60161.06;4991615;28;20054;-65
2022/12/12 08:38:23;;;;;;;27.63;12.73;;;;;;;-144.47;96.78;60129.22;4991853;28;20076;-66
2022/12/12 08:40:48;;;;;;;26.80;10.52;;;;;;;-144.47;96.98;60071.50;4994535;28;20041;-67
2022/12/12 08:43:14;;;;;;;30.70;11.63;;;;;;;-144.47;96.96;60039.66;4995540;28;20026;-63
2022/12/12 08:45:39;;;;;;;26.67;12.27;;;;;;;-144.47;96.69;60013.78;4997196;28;20080;-66
2022/12/12 08:48:06;;;;;;;33.83;12.32;;;;;;;-144.47;96.95;60001.84;4993333;28;20030;-65
2022/12/12 08:50:32;;;;;;;26.13;11.77;;;;;;;-144.47;96.68;59962.03;4992669;28;20037;-64
2022/12/12 08:52:58;;;;;;;28.38;12.40;;;;;;;-144.47;96.59;59916.25;4991745;28;20030;-67
2022/12/12 08:55:23;;;;;;;30.25;13.40;;;;;;;-144.47;96.14;59892.38;4991375;28;20065;-65
2022/12/12 08:57:49;;;;;;;29.00;11.23;;;;;;;-144.47;96.39;59904.31;4991193;28;20471;-67
2022/12/12 09:00:15;;;;;;;29.65;11.60;;;;;;;-144.47;96.29;59904.31;4991666;28;20072;-67
2022/12/12 09:02:40;;;;;;;30.80;12.40;;;;;;;-144.47;96.27;59922.22;4987696;28;20027;-67
2022/12/12 09:05:06;;;;;;;30.50;12.27;;;;;;;-144.47;96.22;59956.06;4989321;28;20160;-68
2022/12/12 09:07:32;;;;;;;32.65;13.63;;;;;;;-144.47;95.58;59932.19;4990438;28;20084;-64
2022/12/12 09:09:57;;;;;;;34.85;15.40;;;;;;;-144.47;95.62;60005.81;4991451;28;20105;-68
2022/12/12 09:12:22;;;;;;;33.95;13.15;;;;;;;-144.47;96.04;59989.91;4988680;28;20109;-66
2022/12/12 09:14:48;;;;;;;28.92;12.55;;;;;;;-144.47;96.29;60005.81;4990474;28;20102;-67
2022/12/12 09:17:13;;;;;;;35.17;13.40;;;;;;;-144.47;96.39;59989.91;4991084;28;20029;-63
2022/12/12 09:19:38;;;;;;;32.85;13.93;;;;;;;-144.47;96.39;59970.00;4991104;28;20029;-69
2022/12/12 09:22:04;;;;;;;28.38;13.13;;;;;;;-144.47;96.39;60005.81;4991408;28;20455;-67
2022/12/12 09:24:29;;;;;;;33.22;14.57;;;;;;;-144.47;96.03;60003.84;4991577;28;20400;-68
2022/12/12 09:26:55;;;;;;;31.73;13.57;;;;;;;-144.47;96.53;60051.59;4991707;28;20041;-67
2022/12/12 09:29:20;;;;;;;39.65;13.85;;;;;;;-144.47;95.46;60021.75;4991105;28;20464;-66
2022/12/12 09:31:46;;;;;;;37.13;14.27;;;;;;;-144.47;95.97;59993.88;4990947;28;20595;-67
2022/12/12 09:34:11;;;;;;;30.33;12.70;;;;;;;-144.47;95.27;59973.97;4991037;28;20023;-68
2022/12/12 09:36:37;;;;;;;34.40;13.50;;;;;;;-144.47;94.90;59950.09;4990678;28;20037;-67
2022/12/12 09:39:02;;;;;;;28.38;13.25;;;;;;;-144.47;94.80;59948.09;4990970;28;20057;-64
2022/12/12 09:41:29;;;;;;;37.22;14.23;;;;;;;-144.47;94.65;59948.09;4990609;28;20026;-68
2022/12/12 09:44:09;;;;;;;36.03;14.30;;;;;;;-144.47;94.24;59896.38;4991219;28;20034;-68
2022/12/12 09:46:43;;;;;;;26.00;11.77;;;;;;;-144.47;94.13;59850.59;4990861;28;20034;-66
2022/12/12 09:49:20;;;;;;;27.85;10.93;;;;;;;-144.47;93.06;59842.63;4991258;28;20038;-66
2022/12/12 09:51:49;;;;;;;30.17;11.95;;;;;;;-144.47;92.69;59856.56;4989641;28;20031;-67
2022/12/12 09:54:21;;;;;;;34.83;13.20;;;;;;;-144.47;92.30;59858.53;4990885;28;20468;-65
2022/12/12 09:56:51;;;;;;;26.42;11.27;;;;;;;-144.47;91.72;59790.88;4990424;28;20503;-67
2022/12/12 09:59:22;;;;;;;25.85;12.43;;;;;;;-144.47;91.71;59767.00;4991075;28;20061;-66
2022/12/12 10:02:08;;;;;;;28.88;11.93;;;;;;;-144.47;90.90;59794.84;4989886;28;20092;-63
2022/12/12 10:04:56;;;;;;;24.08;9.65;;;;;;;-144.47;90.57;59755.06;4984025;28;20033;-68
2022/12/12 10:07:57;;;;;;;29.77;12.27;;;;;;;-144.47;90.35;59745.09;4990131;28;20489;-68
2022/12/12 10:10:27;;;;;;;25.70;10.43;;;;;;;-144.47;89.49;59761.03;4978778;28;20038;-67
2022/12/12 10:12:57;;;;;;;26.40;9.60;;;;;;;-144.47;88.23;59731.16;4987320;28;20488;-66
2022/12/12 10:15:41;;;;;;;22.20;9.20;;;;;;;-144.47;88.23;59713.25;4990892;28;20527;-66
2022/12/12 10:18:24;;;;;;;25.65;11.23;;;;;;;-144.47;88.24;59675.44;4990043;28;20046;-67
2022/12/12 10:20:52;;;;;;;23.50;11.77;;;;;;;-144.47;87.94;59643.59;4990277;28;20443;-68
2022/12/12 10:23:40;;;;;;;27.58;10.32;;;;;;;-144.47;88.10;59635.66;4990808;28;20395;-67
2022/12/12 10:26:09;;;;;;;26.67;10.02;;;;;;;-144.47;87.42;59637.63;4989656;28;20034;-66
2022/12/12 10:28:34;;;;;;;21.98;9.90;;;;;;;-144.47;87.11;59631.66;4990485;28;20141;-66
2022/12/12 10:31:31;;;;;;;28.77;11.13;;;;;;;-144.47;86.85;59631.66;4990329;28;20118;-67
2022/12/12 10:34:14;;;;;;;21.40;9.32;;;;;;;-144.47;86.14;59635.66;4990787;28;20326;-68
2022/12/12 10:36:49;;;;;;;20.67;9.68;;;;;;;-144.47;86.27;59633.66;4990482;28;20042;-66
2022/12/12 10:39:18;;;;;;;20.23;9.30;;;;;;;-144.47;86.33;59611.75;4990532;28;20033;-65
2022/12/12 10:41:43;;;;;;;25.17;10.13;;;;;;;-144.47;85.95;59603.81;4990629;28;20022;-68
2022/12/12 10:44:52;;;;;;;25.92;9.27;;;;;;;-144.47;86.10;59536.13;4990692;28;20029;-66
2022/12/12 10:47:18;;;;;;;26.60;10.02;;;;;;;-144.47;85.43;59542.09;4947803;29;20473;-63
2022/12/12 10:49:43;;;;;;;26.17;9.02;;;;;;;-144.47;85.46;59581.91;4978463;28;20442;-67
2022/12/12 10:52:21;;;;;;;23.45;9.82;;;;;;;-144.47;83.96;59591.84;4992462;28;20046;-67
2022/12/12 10:55:16;;;;;;;27.15;9.35;;;;;;;-144.47;83.39;59593.84;4994285;28;20027;-66
2022/12/12 10:57:41;;;;;;;17.90;8.15;;;;;;;-144.47;83.04;59540.13;4993346;28;20076;-67
2022/12/12 11:00:40;;;;;;;24.92;10.43;;;;;;;-144.47;83.19;59500.31;4993528;28;20045;-67
2022/12/12 11:03:30;;;;;;;26.98;10.65;;;;;;;-144.47;83.78;59538.13;4973003;28;20041;-67
2022/12/12 11:05:56;;;;;;;24.40;10.75;;;;;;;-144.47;83.19;59526.19;4991273;28;20030;-64
2022/12/12 11:08:26;;;;;;;20.85;9.27;;;;;;;-144.47;82.66;59567.97;4993313;28;20057;-66
2022/12/12 11:11:04;;;;;;;19.52;10.40;;;;;;;-144.47;81.97;59502.31;4993053;28;20081;-67
2022/12/12 11:13:37;;;;;;;23.58;10.32;;;;;;;-144.47;82.27;59512.25;4993655;28;20022;-66
2022/12/12 11:16:15;;;;;;;22.65;10.20;;;;;;;-144.47;82.48;59504.28;4992130;28;20031;-67
2022/12/12 11:18:56;;;;;;;23.83;10.40;;;;;;;-144.47;82.53;59540.13;4993271;28;20030;-67
2022/12/12 11:21:23;;;;;;;29.40;10.55;;;;;;;-144.47;81.88;59558.03;4993163;28;20026;-67
2022/12/12 11:23:53;;;;;;;22.15;9.65;;;;;;;-144.47;81.31;59567.97;4993182;28;20034;-67
2022/12/12 11:26:20;;;;;;;20.42;9.93;;;;;;;-144.47;80.88;59567.97;4991356;28;20030;-68
2022/12/12 11:28:52;;;;;;;18.50;8.95;;;;;;;-144.47;81.24;59510.28;4993098;28;20109;-68
2022/12/12 11:31:22;;;;;;;19.33;8.55;;;;;;;-144.47;81.55;59558.03;4993459;28;20073;-67
2022/12/12 11:33:51;;;;;;;26.45;10.00;;;;;;;-144.47;82.81;59472.47;4992182;28;20080;-69
2022/12/12 11:36:30;;;;;;;28.80;11.13;;;;;;;-144.47;81.70;59458.53;4992855;28;20026;-67
2022/12/12 11:38:59;;;;;;;20.80;10.07;;;;;;;-144.47;81.69;59498.31;4993330;28;20034;-66